<?xml version="1.0" encoding="UTF-8" standalone="no" ?>
<gpx xmlns="http://www.topografix.com/GPX/1/1" xmlns:xsi="http://www.w3.org/2001/XMLSchema-instance" xsi:schemaLocation="http://www.topografix.com/GPX/1/1 http://www.topografix.com/GPX/1/1/gpx.xsd" version="1.1" creator="VisuGPX - https://www.visugpx.com">
  <metadata>
    <name>Santeuil Commeny</name>
  </metadata>
  <trk>
    <name><![CDATA[Randonnée du 29/04/2022 à 21:11]]></name>
    <extensions>
      <line xmlns="http://www.topografix.com/GPX/gpx_style/0/2">
        <color>00FF00</color>
        <width>4</width>
      </line>
    </extensions>
    <trkseg>
      <trkpt lat="49.12488" lon="1.93748">
        <ele>60</ele>
        <time>2017-09-30T10:22:47+02:00</time>
      </trkpt>
      <trkpt lat="49.12521" lon="1.93792">
        <ele>58</ele>
        <time>2017-09-30T10:22:52+02:00</time>
      </trkpt>
      <trkpt lat="49.12562" lon="1.93831">
        <ele>56</ele>
        <time>2017-09-30T10:22:57+02:00</time>
      </trkpt>
      <trkpt lat="49.12601" lon="1.93856">
        <ele>57</ele>
        <time>2017-09-30T10:23:02+02:00</time>
      </trkpt>
      <trkpt lat="49.12628" lon="1.93867">
        <ele>59</ele>
        <time>2017-09-30T10:23:07+02:00</time>
      </trkpt>
      <trkpt lat="49.12666" lon="1.9387">
        <ele>62</ele>
        <time>2017-09-30T10:23:12+02:00</time>
      </trkpt>
      <trkpt lat="49.1269" lon="1.93846">
        <ele>62</ele>
        <time>2017-09-30T10:23:17+02:00</time>
      </trkpt>
      <trkpt lat="49.12718" lon="1.9381">
        <ele>64</ele>
        <time>2017-09-30T10:23:22+02:00</time>
      </trkpt>
      <trkpt lat="49.12746" lon="1.93781">
        <ele>65</ele>
        <time>2017-09-30T10:23:27+02:00</time>
      </trkpt>
      <trkpt lat="49.12758" lon="1.93775">
        <ele>65</ele>
        <time>2017-09-30T10:23:32+02:00</time>
      </trkpt>
      <trkpt lat="49.12786" lon="1.93772">
        <ele>66</ele>
        <time>2017-09-30T10:23:37+02:00</time>
      </trkpt>
      <trkpt lat="49.12828" lon="1.93773">
        <ele>68</ele>
        <time>2017-09-30T10:23:42+02:00</time>
      </trkpt>
      <trkpt lat="49.12853" lon="1.93771">
        <ele>70</ele>
        <time>2017-09-30T10:23:47+02:00</time>
      </trkpt>
      <trkpt lat="49.12891" lon="1.93763">
        <ele>74</ele>
        <time>2017-09-30T10:23:52+02:00</time>
      </trkpt>
      <trkpt lat="49.1296" lon="1.93757">
        <ele>79</ele>
        <time>2017-09-30T10:23:57+02:00</time>
      </trkpt>
      <trkpt lat="49.13009" lon="1.93749">
        <ele>81</ele>
        <time>2017-09-30T10:24:02+02:00</time>
      </trkpt>
      <trkpt lat="49.13034" lon="1.93749">
        <ele>82</ele>
        <time>2017-09-30T10:24:07+02:00</time>
      </trkpt>
      <trkpt lat="49.13077" lon="1.93697">
        <ele>82</ele>
        <time>2017-09-30T10:24:12+02:00</time>
      </trkpt>
      <trkpt lat="49.13095" lon="1.9367">
        <ele>82</ele>
        <time>2017-09-30T10:24:17+02:00</time>
      </trkpt>
      <trkpt lat="49.13117" lon="1.93609">
        <ele>81</ele>
        <time>2017-09-30T10:24:22+02:00</time>
      </trkpt>
      <trkpt lat="49.13196" lon="1.93419">
        <ele>84</ele>
        <time>2017-09-30T10:24:27+02:00</time>
      </trkpt>
      <trkpt lat="49.13245" lon="1.93309">
        <ele>87</ele>
        <time>2017-09-30T10:24:32+02:00</time>
      </trkpt>
      <trkpt lat="49.1325" lon="1.93308">
        <ele>88</ele>
        <time>2017-09-30T10:24:37+02:00</time>
      </trkpt>
      <trkpt lat="49.13267" lon="1.93329">
        <ele>88</ele>
        <time>2017-09-30T10:24:42+02:00</time>
      </trkpt>
      <trkpt lat="49.13306" lon="1.93345">
        <ele>88</ele>
        <time>2017-09-30T10:24:47+02:00</time>
      </trkpt>
      <trkpt lat="49.13398" lon="1.93322">
        <ele>89</ele>
        <time>2017-09-30T10:24:52+02:00</time>
      </trkpt>
      <trkpt lat="49.13469" lon="1.93307">
        <ele>90</ele>
        <time>2017-09-30T10:24:57+02:00</time>
      </trkpt>
      <trkpt lat="49.13512" lon="1.93325">
        <ele>90</ele>
        <time>2017-09-30T10:25:02+02:00</time>
      </trkpt>
      <trkpt lat="49.13571" lon="1.93409">
        <ele>89</ele>
        <time>2017-09-30T10:25:07+02:00</time>
      </trkpt>
      <trkpt lat="49.13603" lon="1.93452">
        <ele>88</ele>
        <time>2017-09-30T10:25:12+02:00</time>
      </trkpt>
      <trkpt lat="49.13649" lon="1.93488">
        <ele>87</ele>
        <time>2017-09-30T10:25:17+02:00</time>
      </trkpt>
      <trkpt lat="49.13684" lon="1.93513">
        <ele>86</ele>
        <time>2017-09-30T10:25:22+02:00</time>
      </trkpt>
      <trkpt lat="49.1369" lon="1.93551">
        <ele>84</ele>
        <time>2017-09-30T10:25:27+02:00</time>
      </trkpt>
      <trkpt lat="49.13679" lon="1.93624">
        <ele>81</ele>
        <time>2017-09-30T10:25:32+02:00</time>
      </trkpt>
      <trkpt lat="49.13674" lon="1.93697">
        <ele>77</ele>
        <time>2017-09-30T10:25:37+02:00</time>
      </trkpt>
      <trkpt lat="49.13713" lon="1.93639">
        <ele>77</ele>
        <time>2017-09-30T10:25:42+02:00</time>
      </trkpt>
      <trkpt lat="49.13737" lon="1.93588">
        <ele>80</ele>
        <time>2017-09-30T10:25:47+02:00</time>
      </trkpt>
      <trkpt lat="49.13765" lon="1.93538">
        <ele>81</ele>
        <time>2017-09-30T10:25:52+02:00</time>
      </trkpt>
      <trkpt lat="49.13837" lon="1.93414">
        <ele>86</ele>
        <time>2017-09-30T10:25:57+02:00</time>
      </trkpt>
      <trkpt lat="49.13878" lon="1.93301">
        <ele>85</ele>
        <time>2017-09-30T10:26:02+02:00</time>
      </trkpt>
      <trkpt lat="49.1391" lon="1.93226">
        <ele>84</ele>
        <time>2017-09-30T10:26:07+02:00</time>
      </trkpt>
      <trkpt lat="49.13962" lon="1.93131">
        <ele>86</ele>
        <time>2017-09-30T10:26:12+02:00</time>
      </trkpt>
      <trkpt lat="49.14017" lon="1.93013">
        <ele>89</ele>
        <time>2017-09-30T10:26:17+02:00</time>
      </trkpt>
      <trkpt lat="49.14092" lon="1.92898">
        <ele>91</ele>
        <time>2017-09-30T10:26:22+02:00</time>
      </trkpt>
      <trkpt lat="49.14167" lon="1.92777">
        <ele>93</ele>
        <time>2017-09-30T10:26:27+02:00</time>
      </trkpt>
      <trkpt lat="49.14276" lon="1.92551">
        <ele>93</ele>
        <time>2017-09-30T10:26:32+02:00</time>
      </trkpt>
      <trkpt lat="49.1437" lon="1.92365">
        <ele>93</ele>
        <time>2017-09-30T10:26:37+02:00</time>
      </trkpt>
      <trkpt lat="49.14499" lon="1.92153">
        <ele>93</ele>
        <time>2017-09-30T10:26:42+02:00</time>
      </trkpt>
      <trkpt lat="49.14558" lon="1.92033">
        <ele>92</ele>
        <time>2017-09-30T10:26:47+02:00</time>
      </trkpt>
      <trkpt lat="49.14606" lon="1.91898">
        <ele>92</ele>
        <time>2017-09-30T10:26:52+02:00</time>
      </trkpt>
      <trkpt lat="49.14669" lon="1.91746">
        <ele>92</ele>
        <time>2017-09-30T10:26:57+02:00</time>
      </trkpt>
      <trkpt lat="49.14687" lon="1.91692">
        <ele>93</ele>
        <time>2017-09-30T10:27:02+02:00</time>
      </trkpt>
      <trkpt lat="49.14697" lon="1.916">
        <ele>93</ele>
        <time>2017-09-30T10:27:07+02:00</time>
      </trkpt>
      <trkpt lat="49.14706" lon="1.91501">
        <ele>94</ele>
        <time>2017-09-30T10:27:12+02:00</time>
      </trkpt>
      <trkpt lat="49.14707" lon="1.91391">
        <ele>94</ele>
        <time>2017-09-30T10:27:17+02:00</time>
      </trkpt>
      <trkpt lat="49.14699" lon="1.91241">
        <ele>96</ele>
        <time>2017-09-30T10:27:22+02:00</time>
      </trkpt>
      <trkpt lat="49.14695" lon="1.91192">
        <ele>95</ele>
        <time>2017-09-30T10:27:27+02:00</time>
      </trkpt>
      <trkpt lat="49.14698" lon="1.91136">
        <ele>95</ele>
        <time>2017-09-30T10:27:32+02:00</time>
      </trkpt>
      <trkpt lat="49.14711" lon="1.90985">
        <ele>96</ele>
        <time>2017-09-30T10:27:37+02:00</time>
      </trkpt>
      <trkpt lat="49.14727" lon="1.90842">
        <ele>96</ele>
        <time>2017-09-30T10:27:42+02:00</time>
      </trkpt>
      <trkpt lat="49.1473" lon="1.90682">
        <ele>99</ele>
        <time>2017-09-30T10:27:47+02:00</time>
      </trkpt>
      <trkpt lat="49.14677" lon="1.9047">
        <ele>100</ele>
        <time>2017-09-30T10:27:52+02:00</time>
      </trkpt>
      <trkpt lat="49.14647" lon="1.90378">
        <ele>103</ele>
        <time>2017-09-30T10:27:57+02:00</time>
      </trkpt>
      <trkpt lat="49.14621" lon="1.90311">
        <ele>104</ele>
        <time>2017-09-30T10:28:02+02:00</time>
      </trkpt>
      <trkpt lat="49.14595" lon="1.9023">
        <ele>105</ele>
        <time>2017-09-30T10:28:07+02:00</time>
      </trkpt>
      <trkpt lat="49.14585" lon="1.90191">
        <ele>104</ele>
        <time>2017-09-30T10:28:12+02:00</time>
      </trkpt>
      <trkpt lat="49.14571" lon="1.90172">
        <ele>104</ele>
        <time>2017-09-30T10:28:17+02:00</time>
      </trkpt>
      <trkpt lat="49.1456" lon="1.90148">
        <ele>104</ele>
        <time>2017-09-30T10:28:22+02:00</time>
      </trkpt>
      <trkpt lat="49.14526" lon="1.90237">
        <ele>104</ele>
        <time>2017-09-30T10:28:27+02:00</time>
      </trkpt>
      <trkpt lat="49.1453" lon="1.90339">
        <ele>103</ele>
        <time>2017-09-30T10:28:32+02:00</time>
      </trkpt>
      <trkpt lat="49.14498" lon="1.90483">
        <ele>98</ele>
        <time>2017-09-30T10:28:37+02:00</time>
      </trkpt>
      <trkpt lat="49.14466" lon="1.90567">
        <ele>98</ele>
        <time>2017-09-30T10:28:42+02:00</time>
      </trkpt>
      <trkpt lat="49.14437" lon="1.90656">
        <ele>97</ele>
      </trkpt>
      <trkpt lat="49.1436" lon="1.91003">
        <ele>93</ele>
        <time>2017-09-30T10:28:47+02:00</time>
      </trkpt>
      <trkpt lat="49.14326" lon="1.91125">
        <ele>92</ele>
        <time>2017-09-30T10:28:52+02:00</time>
      </trkpt>
      <trkpt lat="49.14289" lon="1.91178">
        <ele>90</ele>
        <time>2017-09-30T10:28:57+02:00</time>
      </trkpt>
      <trkpt lat="49.14241" lon="1.91089">
        <ele>90</ele>
      </trkpt>
      <trkpt lat="49.14172" lon="1.90977">
        <ele>92</ele>
        <time>2017-09-30T10:29:02+02:00</time>
      </trkpt>
      <trkpt lat="49.14034" lon="1.90712">
        <ele>94</ele>
      </trkpt>
      <trkpt lat="49.13967" lon="1.90528">
        <ele>96</ele>
      </trkpt>
      <trkpt lat="49.13921" lon="1.9045">
        <ele>95</ele>
      </trkpt>
      <trkpt lat="49.13876" lon="1.90373">
        <ele>94</ele>
        <time>2017-09-30T10:29:07+02:00</time>
      </trkpt>
      <trkpt lat="49.13785" lon="1.90244">
        <ele>92</ele>
      </trkpt>
      <trkpt lat="49.1375" lon="1.90013">
        <ele>97</ele>
        <time>2017-09-30T10:29:12+02:00</time>
      </trkpt>
      <trkpt lat="49.13703" lon="1.89888">
        <ele>97</ele>
      </trkpt>
      <trkpt lat="49.13633" lon="1.89801">
        <ele>95</ele>
        <time>2017-09-30T10:29:17+02:00</time>
      </trkpt>
      <trkpt lat="49.13571" lon="1.89731">
        <ele>94</ele>
        <time>2017-09-30T10:29:22+02:00</time>
      </trkpt>
      <trkpt lat="49.13466" lon="1.89753">
        <ele>100</ele>
        <time>2017-09-30T10:29:27+02:00</time>
      </trkpt>
      <trkpt lat="49.13301" lon="1.89897">
        <ele>104</ele>
        <time>2017-09-30T10:29:32+02:00</time>
      </trkpt>
      <trkpt lat="49.13165" lon="1.89741">
        <ele>104</ele>
        <time>2017-09-30T10:29:37+02:00</time>
      </trkpt>
      <trkpt lat="49.12994" lon="1.89562">
        <ele>105</ele>
      </trkpt>
      <trkpt lat="49.12881" lon="1.89359">
        <ele>104</ele>
      </trkpt>
      <trkpt lat="49.12836" lon="1.89209">
        <ele>106</ele>
        <time>2017-09-30T10:31:37+02:00</time>
      </trkpt>
      <trkpt lat="49.12813" lon="1.89081">
        <ele>108</ele>
        <time>2017-09-30T10:31:42+02:00</time>
      </trkpt>
      <trkpt lat="49.12781" lon="1.88983">
        <ele>109</ele>
        <time>2017-09-30T10:31:47+02:00</time>
      </trkpt>
      <trkpt lat="49.12748" lon="1.88995">
        <ele>110</ele>
        <time>2017-09-30T10:31:52+02:00</time>
      </trkpt>
      <trkpt lat="49.12699" lon="1.89034">
        <ele>109</ele>
        <time>2017-09-30T10:31:57+02:00</time>
      </trkpt>
      <trkpt lat="49.1264" lon="1.89112">
        <ele>108</ele>
        <time>2017-09-30T10:32:02+02:00</time>
      </trkpt>
      <trkpt lat="49.12674" lon="1.89256">
        <ele>107</ele>
        <time>2017-09-30T10:32:07+02:00</time>
      </trkpt>
      <trkpt lat="49.127" lon="1.89352">
        <ele>106</ele>
        <time>2017-09-30T10:32:12+02:00</time>
      </trkpt>
      <trkpt lat="49.12723" lon="1.89459">
        <ele>104</ele>
        <time>2017-09-30T10:32:17+02:00</time>
      </trkpt>
      <trkpt lat="49.12759" lon="1.89639">
        <ele>101</ele>
        <time>2017-09-30T10:32:22+02:00</time>
      </trkpt>
      <trkpt lat="49.12807" lon="1.89822">
        <ele>98</ele>
        <time>2017-09-30T10:32:27+02:00</time>
      </trkpt>
      <trkpt lat="49.12838" lon="1.89952">
        <ele>97</ele>
        <time>2017-09-30T10:32:32+02:00</time>
      </trkpt>
      <trkpt lat="49.12856" lon="1.90092">
        <ele>96</ele>
        <time>2017-09-30T10:32:37+02:00</time>
      </trkpt>
      <trkpt lat="49.12849" lon="1.90209">
        <ele>95</ele>
        <time>2017-09-30T10:32:42+02:00</time>
      </trkpt>
      <trkpt lat="49.1283" lon="1.90296">
        <ele>94</ele>
        <time>2017-09-30T10:32:47+02:00</time>
      </trkpt>
      <trkpt lat="49.12816" lon="1.90333">
        <ele>93</ele>
        <time>2017-09-30T10:32:52+02:00</time>
      </trkpt>
      <trkpt lat="49.12804" lon="1.90386">
        <ele>92</ele>
        <time>2017-09-30T10:32:57+02:00</time>
      </trkpt>
      <trkpt lat="49.12803" lon="1.90445">
        <ele>92</ele>
        <time>2017-09-30T10:33:02+02:00</time>
      </trkpt>
      <trkpt lat="49.12818" lon="1.90543">
        <ele>91</ele>
        <time>2017-09-30T10:33:07+02:00</time>
      </trkpt>
      <trkpt lat="49.12818" lon="1.90609">
        <ele>89</ele>
        <time>2017-09-30T10:33:12+02:00</time>
      </trkpt>
      <trkpt lat="49.12805" lon="1.90681">
        <ele>87</ele>
        <time>2017-09-30T10:33:17+02:00</time>
      </trkpt>
      <trkpt lat="49.12793" lon="1.90789">
        <ele>84</ele>
        <time>2017-09-30T10:33:22+02:00</time>
      </trkpt>
      <trkpt lat="49.12729" lon="1.91015">
        <ele>80</ele>
        <time>2017-09-30T10:33:27+02:00</time>
      </trkpt>
      <trkpt lat="49.12684" lon="1.91077">
        <ele>82</ele>
        <time>2017-09-30T10:33:32+02:00</time>
      </trkpt>
      <trkpt lat="49.12643" lon="1.9112">
        <ele>81</ele>
        <time>2017-09-30T10:33:37+02:00</time>
      </trkpt>
      <trkpt lat="49.12631" lon="1.91213">
        <ele>80</ele>
        <time>2017-09-30T10:33:42+02:00</time>
      </trkpt>
      <trkpt lat="49.12651" lon="1.91378">
        <ele>79</ele>
        <time>2017-09-30T10:33:47+02:00</time>
      </trkpt>
      <trkpt lat="49.12679" lon="1.91503">
        <ele>79</ele>
        <time>2017-09-30T10:33:52+02:00</time>
      </trkpt>
      <trkpt lat="49.12722" lon="1.91618">
        <ele>79</ele>
        <time>2017-09-30T10:33:57+02:00</time>
      </trkpt>
      <trkpt lat="49.12775" lon="1.91786">
        <ele>76</ele>
        <time>2017-09-30T10:34:02+02:00</time>
      </trkpt>
      <trkpt lat="49.12811" lon="1.91957">
        <ele>76</ele>
        <time>2017-09-30T10:34:07+02:00</time>
      </trkpt>
      <trkpt lat="49.12825" lon="1.92153">
        <ele>75</ele>
        <time>2017-09-30T10:34:12+02:00</time>
      </trkpt>
      <trkpt lat="49.12846" lon="1.92291">
        <ele>72</ele>
        <time>2017-09-30T10:34:17+02:00</time>
      </trkpt>
      <trkpt lat="49.12854" lon="1.9231">
        <ele>73</ele>
        <time>2017-09-30T10:34:22+02:00</time>
      </trkpt>
      <trkpt lat="49.12857" lon="1.9235">
        <ele>72</ele>
        <time>2017-09-30T10:34:27+02:00</time>
      </trkpt>
      <trkpt lat="49.1287" lon="1.9238">
        <ele>72</ele>
        <time>2017-09-30T10:34:32+02:00</time>
      </trkpt>
      <trkpt lat="49.12898" lon="1.92496">
        <ele>74</ele>
        <time>2017-09-30T10:34:37+02:00</time>
      </trkpt>
      <trkpt lat="49.12965" lon="1.92677">
        <ele>73</ele>
        <time>2017-09-30T10:34:42+02:00</time>
      </trkpt>
      <trkpt lat="49.13011" lon="1.92818">
        <ele>73</ele>
        <time>2017-09-30T10:34:47+02:00</time>
      </trkpt>
      <trkpt lat="49.13028" lon="1.9291">
        <ele>72</ele>
        <time>2017-09-30T10:34:52+02:00</time>
      </trkpt>
      <trkpt lat="49.13033" lon="1.92979">
        <ele>69</ele>
        <time>2017-09-30T10:34:57+02:00</time>
      </trkpt>
      <trkpt lat="49.13044" lon="1.92987">
        <ele>68</ele>
        <time>2017-09-30T10:35:02+02:00</time>
      </trkpt>
      <trkpt lat="49.13054" lon="1.92975">
        <ele>69</ele>
        <time>2017-09-30T10:35:07+02:00</time>
      </trkpt>
      <trkpt lat="49.13062" lon="1.92956">
        <ele>70</ele>
        <time>2017-09-30T10:35:12+02:00</time>
      </trkpt>
      <trkpt lat="49.13091" lon="1.92905">
        <ele>73</ele>
        <time>2017-09-30T10:35:17+02:00</time>
      </trkpt>
      <trkpt lat="49.13135" lon="1.9287">
        <ele>74</ele>
        <time>2017-09-30T10:35:22+02:00</time>
      </trkpt>
      <trkpt lat="49.13194" lon="1.9284">
        <ele>76</ele>
        <time>2017-09-30T10:35:27+02:00</time>
      </trkpt>
      <trkpt lat="49.13291" lon="1.92828">
        <ele>72</ele>
        <time>2017-09-30T10:35:32+02:00</time>
      </trkpt>
      <trkpt lat="49.13313" lon="1.92814">
        <ele>70</ele>
        <time>2017-09-30T10:35:37+02:00</time>
      </trkpt>
      <trkpt lat="49.13317" lon="1.92809">
        <ele>69</ele>
        <time>2017-09-30T10:35:42+02:00</time>
      </trkpt>
      <trkpt lat="49.13323" lon="1.92784">
        <ele>70</ele>
        <time>2017-09-30T10:35:47+02:00</time>
      </trkpt>
      <trkpt lat="49.13318" lon="1.92757">
        <ele>73</ele>
        <time>2017-09-30T10:35:52+02:00</time>
      </trkpt>
      <trkpt lat="49.13323" lon="1.92741">
        <ele>72</ele>
        <time>2017-09-30T10:35:57+02:00</time>
      </trkpt>
      <trkpt lat="49.13328" lon="1.92773">
        <ele>70</ele>
        <time>2017-09-30T10:36:02+02:00</time>
      </trkpt>
      <trkpt lat="49.13362" lon="1.92837">
        <ele>65</ele>
        <time>2017-09-30T10:36:07+02:00</time>
      </trkpt>
      <trkpt lat="49.13398" lon="1.92888">
        <ele>64</ele>
        <time>2017-09-30T10:36:12+02:00</time>
      </trkpt>
      <trkpt lat="49.13427" lon="1.92929">
        <ele>68</ele>
        <time>2017-09-30T10:36:17+02:00</time>
      </trkpt>
      <trkpt lat="49.13434" lon="1.92965">
        <ele>73</ele>
        <time>2017-09-30T10:36:22+02:00</time>
      </trkpt>
      <trkpt lat="49.13428" lon="1.92997">
        <ele>75</ele>
        <time>2017-09-30T10:36:27+02:00</time>
      </trkpt>
      <trkpt lat="49.13384" lon="1.93067">
        <ele>77</ele>
        <time>2017-09-30T10:36:32+02:00</time>
      </trkpt>
      <trkpt lat="49.1333" lon="1.93118">
        <ele>78</ele>
        <time>2017-09-30T10:36:37+02:00</time>
      </trkpt>
      <trkpt lat="49.13273" lon="1.93154">
        <ele>80</ele>
        <time>2017-09-30T10:36:42+02:00</time>
      </trkpt>
      <trkpt lat="49.13249" lon="1.93187">
        <ele>82</ele>
        <time>2017-09-30T10:36:47+02:00</time>
      </trkpt>
      <trkpt lat="49.13239" lon="1.93231">
        <ele>84</ele>
        <time>2017-09-30T10:36:52+02:00</time>
      </trkpt>
      <trkpt lat="49.1324" lon="1.93277">
        <ele>86</ele>
        <time>2017-09-30T10:36:57+02:00</time>
      </trkpt>
      <trkpt lat="49.13245" lon="1.93299">
        <ele>87</ele>
        <time>2017-09-30T10:37:02+02:00</time>
      </trkpt>
      <trkpt lat="49.13173" lon="1.93464">
        <ele>83</ele>
        <time>2017-09-30T10:37:07+02:00</time>
      </trkpt>
      <trkpt lat="49.13106" lon="1.93624">
        <ele>81</ele>
        <time>2017-09-30T10:37:12+02:00</time>
      </trkpt>
      <trkpt lat="49.13092" lon="1.93667">
        <ele>81</ele>
        <time>2017-09-30T10:37:17+02:00</time>
      </trkpt>
      <trkpt lat="49.13065" lon="1.93709">
        <ele>82</ele>
        <time>2017-09-30T10:37:22+02:00</time>
      </trkpt>
      <trkpt lat="49.13034" lon="1.93744">
        <ele>82</ele>
        <time>2017-09-30T10:37:27+02:00</time>
      </trkpt>
      <trkpt lat="49.13002" lon="1.93745">
        <ele>80</ele>
        <time>2017-09-30T10:37:32+02:00</time>
      </trkpt>
      <trkpt lat="49.12935" lon="1.93755">
        <ele>78</ele>
        <time>2017-09-30T10:37:37+02:00</time>
      </trkpt>
      <trkpt lat="49.129" lon="1.93759">
        <ele>75</ele>
        <time>2017-09-30T10:37:42+02:00</time>
      </trkpt>
      <trkpt lat="49.12864" lon="1.93765">
        <ele>71</ele>
        <time>2017-09-30T10:37:47+02:00</time>
      </trkpt>
      <trkpt lat="49.12828" lon="1.93766">
        <ele>68</ele>
        <time>2017-09-30T10:37:52+02:00</time>
      </trkpt>
      <trkpt lat="49.12782" lon="1.93768">
        <ele>66</ele>
        <time>2017-09-30T10:37:57+02:00</time>
      </trkpt>
      <trkpt lat="49.12753" lon="1.93772">
        <ele>65</ele>
        <time>2017-09-30T10:38:02+02:00</time>
      </trkpt>
      <trkpt lat="49.1273" lon="1.93791">
        <ele>64</ele>
        <time>2017-09-30T10:38:07+02:00</time>
      </trkpt>
      <trkpt lat="49.12707" lon="1.93819">
        <ele>63</ele>
        <time>2017-09-30T10:38:12+02:00</time>
      </trkpt>
      <trkpt lat="49.12675" lon="1.93859">
        <ele>62</ele>
        <time>2017-09-30T10:38:17+02:00</time>
      </trkpt>
      <trkpt lat="49.12653" lon="1.93869">
        <ele>61</ele>
        <time>2017-09-30T10:38:22+02:00</time>
      </trkpt>
      <trkpt lat="49.1262" lon="1.93861">
        <ele>58</ele>
        <time>2017-09-30T10:38:27+02:00</time>
      </trkpt>
      <trkpt lat="49.12603" lon="1.93853">
        <ele>57</ele>
        <time>2017-09-30T10:38:32+02:00</time>
      </trkpt>
      <trkpt lat="49.12589" lon="1.93844">
        <ele>55</ele>
        <time>2017-09-30T10:38:37+02:00</time>
      </trkpt>
      <trkpt lat="49.12562" lon="1.93824">
        <ele>56</ele>
        <time>2017-09-30T10:38:42+02:00</time>
      </trkpt>
      <trkpt lat="49.12525" lon="1.93788">
        <ele>58</ele>
        <time>2017-09-30T10:38:47+02:00</time>
      </trkpt>
      <trkpt lat="49.12492" lon="1.93745">
        <ele>60</ele>
        <time>2017-09-30T10:38:52+02:00</time>
      </trkpt>
      <trkpt lat="49.12503" lon="1.9376">
        <ele>59</ele>
        <time>2017-09-30T10:38:57+02:00</time>
      </trkpt>
    </trkseg>
  </trk>
</gpx>